Ana Sayfa
METAR-TAF:

METAR-TAF

Havaalanları :

Brookhaven Airport

Shirley, New York, Amerika Birleşik Devletleri

Enlem: 40-49-18N, Boylam: 072-52-08W, yükseklik: 25 m

Güncel hava durumu gözlemi

Rapor saat 19:56 UTC de 1 saat ve 5 dakika önce yapıldı.
Rüzgar kuzey/kuzeybatıdan 11 kt ve 20 kt'a kadar ani rüzgarlar
Sıcaklık 21°C
Nem 28%
Basınç 1017 hPa
Görüş mesafesi: 16.1 km
Açık gökyüzü

METAR: KHWV 311956Z AUTO 34011G20KT 10SM CLR 21/02 A3004 RMK AO2 PK WND 31026/1910 SLP171 T02110017 TSNO

Saat: 17:01 (21:01 UTC)


TAF: eksik

4.000'den fazla havaalanı için hava durumu gözlemleri ve tahminleri (METAR ve TAF raporları).

Kullanılabilir istasyonlar harita üzerinde sarı ve kırmızı noktalarla gösterilir.

İstasyonun adını görmek için fareyi noktanın üzerinde gezdirin.

Sonrasında hava gözlem ve tahminlerini görmek için tıklayın.

Haritayı değiştirmek için: yaklaştırmak için siyah artı işaretli yeşil düğmeye ve uzaklaştırmak için de eksi işaretli düğmeye hızla tıklayın; bitişik haritalar için yeşil okları kullanın.


METAR-TAF: